Time;durP1;ratioP1;P1;durP2;ratioP2;P2;SDS_P1;SDS_P2;PMS_P1;PMS_P2;Temp;Humidity;BMP_temperature;BMP_pressure;BME280_temperature;BME280_humidity;BME280_pressure;Samples;Min_cycle;Max_cycle;Signal;HPM_P1;HPM_P2
2023/12/05 00:00:12;;;;;;;395.60;43.05;;;;;;;6.76;100.00;97784.13;5079280;28;20039;-88
2023/12/05 00:02:56;;;;;;;71.47;24.27;;;;;;;6.78;100.00;97789.97;5080087;28;20439;-87
2023/12/05 00:05:41;;;;;;;123.45;27.92;;;;;;;6.90;100.00;97788.38;5083464;28;20096;-86
2023/12/05 00:08:25;;;;;;;368.73;41.28;;;;;;;6.82;100.00;97798.97;5081524;28;20121;-87
2023/12/05 00:11:09;;;;;;;659.75;62.92;;;;;;;6.94;100.00;97796.56;5070406;28;20047;-87
2023/12/05 00:13:53;;;;;;;680.95;66.47;;;;;;;6.95;100.00;97791.16;5080299;28;20451;-85
2023/12/05 00:16:37;;;;;;;303.00;38.83;;;;;;;6.94;100.00;97800.00;5083419;28;20454;-86
2023/12/05 00:19:21;;;;;;;498.98;53.90;;;;;;;7.01;100.00;97805.22;5079927;28;20094;-86
2023/12/05 00:22:05;;;;;;;402.70;49.45;;;;;;;6.74;100.00;97804.41;5079172;28;20074;-86
2023/12/05 00:24:49;;;;;;;402.35;48.95;;;;;;;6.79;100.00;97813.25;5076742;28;20134;-85
2023/12/05 00:27:33;;;;;;;761.15;75.38;;;;;;;6.77;100.00;97810.00;5078963;28;20097;-86
2023/12/05 00:30:17;;;;;;;107.95;33.00;;;;;;;6.91;100.00;97821.28;5076296;28;20140;-86
2023/12/05 00:33:01;;;;;;;99.95;32.45;;;;;;;7.04;100.00;97820.47;5078953;28;20092;-85
2023/12/05 00:35:45;;;;;;;74.47;30.05;;;;;;;6.85;100.00;97828.09;5075749;28;20093;-85
2023/12/05 00:38:28;;;;;;;80.55;30.20;;;;;;;7.10;100.00;97832.69;5077313;28;20090;-85
2023/12/05 00:41:13;;;;;;;95.05;31.05;;;;;;;7.17;100.00;97829.25;5074808;28;20186;-85
2023/12/05 00:43:56;;;;;;;203.68;37.72;;;;;;;7.12;100.00;97829.88;5074965;28;20047;-85
2023/12/05 00:46:40;;;;;;;343.40;46.63;;;;;;;7.11;100.00;97836.13;5076044;28;20050;-87
2023/12/05 00:49:24;;;;;;;533.53;56.33;;;;;;;7.20;100.00;97829.66;5077643;28;20071;-86
2023/12/05 00:52:08;;;;;;;68.07;28.45;;;;;;;7.08;100.00;97826.88;5079851;28;20059;-87
2023/12/05 00:54:52;;;;;;;62.08;27.60;;;;;;;6.96;100.00;97842.34;5082487;28;20188;-86
2023/12/05 00:57:36;;;;;;;56.03;25.20;;;;;;;6.67;100.00;97839.09;5077945;28;20079;-87
2023/12/05 01:00:20;;;;;;;54.40;26.15;;;;;;;6.92;100.00;97843.75;5078108;28;20055;-86
2023/12/05 01:03:04;;;;;;;77.40;29.15;;;;;;;6.98;100.00;97845.53;5076205;28;20036;-88
2023/12/05 01:05:48;;;;;;;54.15;25.05;;;;;;;7.02;100.00;97851.16;5075866;28;20170;-85
2023/12/05 01:08:32;;;;;;;58.38;25.50;;;;;;;6.61;100.00;97852.94;5078175;28;20043;-86
2023/12/05 01:11:16;;;;;;;66.18;27.38;;;;;;;6.83;100.00;97850.13;5083000;28;20036;-85
2023/12/05 01:14:00;;;;;;;142.07;30.85;;;;;;;6.81;100.00;97858.19;5086360;28;20088;-86
2023/12/05 01:16:44;;;;;;;58.15;23.80;;;;;;;6.88;100.00;97858.19;5088456;28;20439;-85
2023/12/05 01:19:28;;;;;;;61.95;23.05;;;;;;;6.89;100.00;97862.41;5085300;28;20102;-86
2023/12/05 01:22:12;;;;;;;51.58;22.88;;;;;;;6.51;100.00;97870.78;5082614;28;20040;-86
2023/12/05 01:24:56;;;;;;;47.45;22.88;;;;;;;6.54;100.00;97870.38;5083064;28;20039;-85
2023/12/05 01:27:40;;;;;;;54.08;23.95;;;;;;;6.65;100.00;97875.00;5083745;28;20067;-86
2023/12/05 01:30:24;;;;;;;49.28;23.02;;;;;;;6.80;100.00;97881.84;5088765;28;20117;-86
2023/12/05 01:33:08;;;;;;;57.90;25.27;;;;;;;7.04;100.00;97877.84;5082495;28;20047;-87
2023/12/05 01:35:52;;;;;;;49.00;22.77;;;;;;;6.88;100.00;97879.06;5078354;28;20043;-86
2023/12/05 01:38:37;;;;;;;53.42;24.90;;;;;;;6.91;100.00;97876.06;5081039;28;20426;-86
2023/12/05 01:41:21;;;;;;;56.25;24.08;;;;;;;6.84;100.00;97896.09;5077141;28;20042;-85
2023/12/05 01:44:04;;;;;;;57.88;25.38;;;;;;;6.90;100.00;97889.28;5082718;28;20552;-86
2023/12/05 01:46:49;;;;;;;64.72;27.10;;;;;;;6.87;100.00;97890.47;5082271;28;20070;-87
2023/12/05 01:49:34;;;;;;;59.25;25.52;;;;;;;7.03;100.00;97896.31;5086590;28;20444;-87
2023/12/05 01:52:19;;;;;;;58.28;25.35;;;;;;;6.83;100.00;97902.31;5087904;28;20039;-87
2023/12/05 01:55:04;;;;;;;77.75;28.90;;;;;;;7.04;100.00;97913.56;5083059;28;20043;-87
2023/12/05 01:57:49;;;;;;;65.07;24.55;;;;;;;6.72;100.00;97914.94;5082432;28;20116;-87
2023/12/05 02:00:34;;;;;;;56.75;23.80;;;;;;;6.94;100.00;97914.78;5084636;28;20039;-87
2023/12/05 02:03:18;;;;;;;76.28;25.60;;;;;;;6.87;100.00;97916.56;5087180;28;20047;-87
2023/12/05 02:06:03;;;;;;;56.97;21.77;;;;;;;6.68;100.00;97908.53;5084080;28;20067;-88
2023/12/05 02:08:52;;;;;;;43.00;19.25;;;;;;;6.53;100.00;97928.72;5076619;28;20043;-87
2023/12/05 02:11:36;;;;;;;48.63;18.73;;;;;;;6.41;100.00;97929.28;5075977;28;20050;-88
2023/12/05 02:14:20;;;;;;;55.42;19.20;;;;;;;6.69;100.00;97927.56;5089765;28;20074;-88
2023/12/05 02:17:31;;;;;;;49.72;20.80;;;;;;;6.64;100.00;97933.34;5085127;28;20043;-87
2023/12/05 02:20:21;;;;;;;53.67;19.90;;;;;;;6.67;100.00;97935.56;5083841;28;20035;-88
2023/12/05 02:23:14;;;;;;;47.30;19.30;;;;;;;6.48;100.00;97949.34;5081791;28;20461;-87
2023/12/05 02:26:23;;;;;;;46.00;17.90;;;;;;;6.41;100.00;97944.91;5080213;28;20570;-88
2023/12/05 02:29:07;;;;;;;38.17;15.90;;;;;;;6.35;100.00;97948.31;5083247;28;20132;-87
2023/12/05 02:31:52;;;;;;;30.25;15.60;;;;;;;6.43;100.00;97950.75;5085693;28;20112;-86
2023/12/05 02:34:36;;;;;;;41.70;14.77;;;;;;;6.17;100.00;97963.66;5084053;28;20075;-86
2023/12/05 02:37:34;;;;;;;38.40;13.77;;;;;;;6.03;100.00;97965.38;5085920;28;20116;-85
2023/12/05 02:40:28;;;;;;;42.75;16.30;;;;;;;6.31;100.00;97962.72;5078591;28;20177;-85
2023/12/05 02:43:19;;;;;;;34.50;14.52;;;;;;;6.19;100.00;97967.69;5079310;28;20094;-87
2023/12/05 02:46:07;;;;;;;38.08;16.33;;;;;;;6.24;100.00;97972.28;5085096;28;20047;-87
2023/12/05 02:48:52;;;;;;;66.57;18.70;;;;;;;6.54;100.00;97978.06;5082375;28;20089;-87
2023/12/05 02:51:37;;;;;;;142.43;24.05;;;;;;;6.41;100.00;97984.00;5079000;28;20556;-86
2023/12/05 02:54:21;;;;;;;56.63;16.95;;;;;;;6.34;100.00;97983.19;5086776;28;20046;-86
2023/12/05 02:57:06;;;;;;;41.47;14.90;;;;;;;6.33;100.00;97985.97;5088318;28;20061;-86
2023/12/05 02:59:49;;;;;;;43.55;14.82;;;;;;;6.35;100.00;97984.78;5080356;28;20035;-87
2023/12/05 03:02:33;;;;;;;36.92;14.40;;;;;;;6.52;100.00;97990.47;5085418;28;20576;-86
2023/12/05 03:05:18;;;;;;;43.10;14.65;;;;;;;6.36;100.00;97985.59;5079235;28;20047;-88
2023/12/05 03:08:02;;;;;;;28.83;13.23;;;;;;;6.39;100.00;97982.63;5083320;28;20146;-87
2023/12/05 03:10:46;;;;;;;36.83;14.65;;;;;;;6.45;100.00;97994.88;5083098;28;20043;-86
2023/12/05 03:13:29;;;;;;;34.00;13.23;;;;;;;6.61;100.00;97998.16;5081442;28;20582;-85
2023/12/05 03:16:13;;;;;;;32.03;12.05;;;;;;;6.47;100.00;97992.06;5078805;28;20077;-86
2023/12/05 03:18:58;;;;;;;35.95;13.00;;;;;;;6.50;100.00;98008.13;5084499;28;20035;-86
2023/12/05 03:21:41;;;;;;;31.58;12.55;;;;;;;6.50;100.00;98002.13;5082853;28;20137;-87
2023/12/05 03:24:25;;;;;;;47.47;13.80;;;;;;;6.36;100.00;98002.03;5081495;28;20054;-85
2023/12/05 03:27:09;;;;;;;34.80;13.90;;;;;;;6.68;100.00;97998.97;5083993;28;20097;-86
2023/12/05 03:29:53;;;;;;;38.13;14.13;;;;;;;6.44;100.00;98003.69;5081500;28;20559;-87
2023/12/05 03:32:37;;;;;;;38.10;14.25;;;;;;;6.55;100.00;98010.16;5083250;28;20497;-86
2023/12/05 03:35:21;;;;;;;34.22;14.90;;;;;;;6.57;100.00;98013.38;5080926;28;20067;-87
2023/12/05 03:38:05;;;;;;;52.35;15.05;;;;;;;6.71;100.00;98028.09;5085017;28;20114;-85
2023/12/05 03:40:49;;;;;;;44.78;15.43;;;;;;;6.60;100.00;98030.44;5081230;28;20052;-85
2023/12/05 03:43:33;;;;;;;43.70;15.60;;;;;;;6.54;100.00;98022.38;5083203;28;20051;-85
2023/12/05 03:46:17;;;;;;;37.90;15.23;;;;;;;6.47;100.00;98025.94;5081898;28;20039;-86
2023/12/05 03:49:01;;;;;;;46.67;16.98;;;;;;;6.22;100.00;98034.22;5081422;28;20071;-86
2023/12/05 03:51:45;;;;;;;47.88;17.00;;;;;;;6.47;100.00;98028.53;5078653;28;20039;-88
2023/12/05 03:54:29;;;;;;;40.90;17.75;;;;;;;6.29;100.00;98033.28;5082335;28;20125;-87
2023/12/05 03:57:13;;;;;;;40.72;16.38;;;;;;;6.29;100.00;98038.50;5086196;28;20047;-87
2023/12/05 03:59:57;;;;;;;47.10;15.60;;;;;;;6.22;100.00;98036.84;5086775;28;20047;-88
2023/12/05 04:02:41;;;;;;;40.95;15.65;;;;;;;6.17;100.00;98041.81;5077637;28;20067;-87
2023/12/05 04:05:24;;;;;;;47.50;15.93;;;;;;;6.54;100.00;98045.84;5082104;28;20563;-86
2023/12/05 04:08:09;;;;;;;47.58;15.18;;;;;;;6.27;100.00;98050.91;5077990;28;20051;-87
2023/12/05 04:10:53;;;;;;;36.55;14.23;;;;;;;6.43;100.00;98055.00;5079991;28;20034;-87
2023/12/05 04:13:37;;;;;;;35.72;14.40;;;;;;;6.66;100.00;98059.13;5080352;28;20397;-89
2023/12/05 04:16:21;;;;;;;42.58;14.48;;;;;;;6.55;100.00;98065.69;5081770;28;20047;-87
2023/12/05 04:19:05;;;;;;;36.00;13.95;;;;;;;6.65;100.00;98073.16;5079346;28;20398;-87
2023/12/05 04:21:49;;;;;;;42.90;15.25;;;;;;;6.59;100.00;98076.56;5082440;28;20098;-88
2023/12/05 04:24:33;;;;;;;37.25;16.17;;;;;;;6.88;100.00;98079.91;5082078;28;20437;-87
2023/12/05 04:27:17;;;;;;;47.40;17.35;;;;;;;6.56;100.00;98076.94;5077174;28;20105;-88
2023/12/05 04:30:02;;;;;;;37.13;15.77;;;;;;;6.55;100.00;98080.56;5080655;28;20106;-87
2023/12/05 04:32:46;;;;;;;37.08;15.68;;;;;;;6.72;100.00;98083.63;5078765;28;20054;-87
2023/12/05 04:35:30;;;;;;;43.38;16.50;;;;;;;6.52;100.00;98083.53;5080126;28;20047;-86
2023/12/05 04:38:15;;;;;;;41.42;15.65;;;;;;;6.29;100.00;98095.81;5076558;28;20070;-87
2023/12/05 04:40:59;;;;;;;41.75;15.27;;;;;;;6.38;100.00;98091.28;5082952;28;20043;-86
2023/12/05 04:43:43;;;;;;;40.20;16.33;;;;;;;6.46;100.00;98094.72;5080246;28;20141;-87
2023/12/05 04:46:27;;;;;;;42.78;15.20;;;;;;;6.22;100.00;98094.16;5078263;28;20071;-87
2023/12/05 04:49:11;;;;;;;44.58;14.93;;;;;;;6.30;100.00;98101.84;5075538;28;20456;-89
2023/12/05 04:51:55;;;;;;;170.25;21.90;;;;;;;6.59;100.00;98110.44;5080862;28;20050;-86
2023/12/05 04:54:39;;;;;;;57.53;16.02;;;;;;;6.18;100.00;98111.19;5075238;28;20555;-87
2023/12/05 04:57:23;;;;;;;39.20;13.75;;;;;;;6.39;100.00;98111.13;5079101;28;20070;-86
2023/12/05 05:00:09;;;;;;;456.90;41.00;;;;;;;6.36;100.00;98108.91;5081157;28;20080;-85
2023/12/05 05:02:53;;;;;;;34.65;14.43;;;;;;;6.21;100.00;98122.03;5077582;28;20044;-86
2023/12/05 05:05:37;;;;;;;45.38;14.00;;;;;;;6.28;100.00;98135.09;5076445;28;20455;-86
2023/12/05 05:08:21;;;;;;;30.45;12.90;;;;;;;6.37;100.00;98118.34;5082171;28;20071;-86
2023/12/05 05:11:05;;;;;;;29.73;14.10;;;;;;;6.43;100.00;98127.22;5080457;28;20035;-86
2023/12/05 05:13:49;;;;;;;31.17;13.23;;;;;;;6.15;100.00;98133.19;5081016;28;20497;-87
2023/12/05 05:16:33;;;;;;;37.58;13.18;;;;;;;5.97;100.00;98131.03;5077330;28;20604;-86
2023/12/05 05:19:17;;;;;;;33.22;13.45;;;;;;;6.08;100.00;98143.56;5077002;28;20128;-86
2023/12/05 05:22:01;;;;;;;26.92;12.15;;;;;;;6.28;100.00;98141.13;5064701;28;20124;-86
2023/12/05 05:24:45;;;;;;;32.08;12.23;;;;;;;6.03;100.00;98148.53;5082950;28;20097;-86
2023/12/05 05:27:29;;;;;;;31.75;12.63;;;;;;;6.00;100.00;98143.66;5079747;28;20400;-86
2023/12/05 05:30:13;;;;;;;29.23;11.45;;;;;;;6.49;100.00;98154.31;5082592;28;20039;-87
2023/12/05 05:32:57;;;;;;;23.02;10.63;;;;;;;6.12;100.00;98163.06;5082608;28;20059;-87
2023/12/05 05:35:41;;;;;;;28.30;10.95;;;;;;;6.14;100.00;98166.28;5079443;28;20067;-86
2023/12/05 05:38:25;;;;;;;30.02;10.68;;;;;;;6.29;100.00;98168.81;5078109;28;21313;-87
2023/12/05 05:41:10;;;;;;;31.85;11.32;;;;;;;6.39;100.00;98173.69;5074927;28;20066;-86
2023/12/05 05:43:54;;;;;;;29.85;12.55;;;;;;;6.31;100.00;98176.44;5079600;28;20097;-87
2023/12/05 05:46:38;;;;;;;30.33;11.57;;;;;;;6.09;100.00;98173.03;5079758;28;20043;-86
2023/12/05 05:49:22;;;;;;;26.58;11.13;;;;;;;6.10;100.00;98180.69;5077490;28;20097;-87
2023/12/05 05:52:06;;;;;;;28.80;10.30;;;;;;;5.83;100.00;98190.00;5082204;28;20566;-88
2023/12/05 05:54:50;;;;;;;19.15;8.48;;;;;;;5.72;100.00;98186.09;5081087;28;20075;-87
2023/12/05 05:57:35;;;;;;;16.02;7.75;;;;;;;5.80;100.00;98195.59;5086302;28;20491;-86
2023/12/05 06:00:20;;;;;;;19.25;8.00;;;;;;;5.85;100.00;98208.84;5079017;28;20145;-87
2023/12/05 06:03:05;;;;;;;14.90;7.95;;;;;;;6.10;100.00;98206.72;5081680;28;20047;-87
2023/12/05 06:05:49;;;;;;;19.48;7.40;;;;;;;6.19;100.00;98209.19;5084207;28;21246;-87
2023/12/05 06:08:33;;;;;;;15.15;8.27;;;;;;;5.85;100.00;98204.44;5081522;28;20062;-87
2023/12/05 06:11:17;;;;;;;20.92;7.95;;;;;;;6.34;100.00;98212.56;5085150;28;20140;-85
2023/12/05 06:14:01;;;;;;;15.95;8.18;;;;;;;6.45;100.00;98221.66;5085158;28;20571;-85
2023/12/05 06:16:45;;;;;;;21.95;7.75;;;;;;;6.15;100.00;98224.41;5081295;28;20055;-83
2023/12/05 06:19:29;;;;;;;21.23;8.68;;;;;;;5.99;100.00;98213.22;5081594;28;20047;-85
2023/12/05 06:22:12;;;;;;;25.70;9.70;;;;;;;5.69;100.00;98215.88;5077681;28;20116;-86
2023/12/05 06:24:57;;;;;;;19.55;9.20;;;;;;;6.14;100.00;98231.41;5081875;28;20051;-83
2023/12/05 06:27:41;;;;;;;30.90;10.90;;;;;;;5.89;100.00;98232.72;5081018;28;20035;-82
2023/12/05 06:30:25;;;;;;;20.05;9.75;;;;;;;5.98;100.00;98244.66;5086347;28;20098;-84
2023/12/05 06:33:09;;;;;;;22.58;9.65;;;;;;;6.03;100.00;98247.53;5082677;28;20100;-85
2023/12/05 06:35:53;;;;;;;23.67;10.07;;;;;;;6.17;100.00;98253.69;5079053;28;20044;-85
2023/12/05 06:38:37;;;;;;;22.65;11.15;;;;;;;6.00;100.00;98266.09;5084557;28;20047;-86
2023/12/05 06:41:21;;;;;;;19.80;9.77;;;;;;;5.94;100.00;98266.84;5076914;28;20054;-87
2023/12/05 06:44:05;;;;;;;30.42;10.15;;;;;;;6.28;100.00;98265.41;5080888;28;20089;-87
2023/12/05 06:46:49;;;;;;;46.45;14.18;;;;;;;6.33;100.00;98276.09;5080112;28;20043;-84
2023/12/05 06:49:33;;;;;;;30.67;12.45;;;;;;;6.18;100.00;98272.75;5083643;28;20036;-87
2023/12/05 06:52:16;;;;;;;134.15;19.83;;;;;;;6.20;100.00;98289.00;5080012;28;20078;-84
2023/12/05 06:55:00;;;;;;;128.40;19.58;;;;;;;5.98;100.00;98286.31;5082546;28;20127;-85
2023/12/05 06:57:45;;;;;;;31.02;11.32;;;;;;;6.39;100.00;98293.59;5084646;28;20047;-86
2023/12/05 07:00:29;;;;;;;27.70;11.50;;;;;;;6.22;100.00;98297.44;5078953;28;20098;-88
2023/12/05 07:03:13;;;;;;;56.08;16.85;;;;;;;6.41;100.00;98302.03;5080115;28;20405;-86
2023/12/05 07:05:57;;;;;;;33.00;12.95;;;;;;;6.55;100.00;98307.38;5078845;28;20097;-85
2023/12/05 07:08:41;;;;;;;51.83;16.23;;;;;;;6.35;100.00;98318.44;5082763;28;20455;-88
2023/12/05 07:11:25;;;;;;;74.60;19.92;;;;;;;6.53;100.00;98320.59;5080278;28;20451;-88
2023/12/05 07:14:12;;;;;;;368.02;43.47;;;;;;;6.56;100.00;98327.25;5084952;28;20047;-86
2023/12/05 07:16:56;;;;;;;40.90;16.55;;;;;;;6.19;100.00;98326.47;5081187;28;20047;-86
2023/12/05 07:19:40;;;;;;;38.33;17.75;;;;;;;6.24;100.00;98337.97;5077193;28;20074;-85
2023/12/05 07:22:24;;;;;;;101.53;24.92;;;;;;;6.27;100.00;98334.16;5082694;28;20040;-87
2023/12/05 07:25:08;;;;;;;57.05;21.65;;;;;;;6.08;100.00;98338.97;5074509;28;20082;-85
2023/12/05 07:27:52;;;;;;;49.95;20.38;;;;;;;6.41;100.00;98330.72;5082990;28;20398;-86
2023/12/05 07:30:36;;;;;;;56.33;20.52;;;;;;;5.97;100.00;98335.00;5079774;28;20043;-87
2023/12/05 07:33:20;;;;;;;49.72;20.50;;;;;;;5.68;100.00;98343.66;5080244;28;20105;-86
2023/12/05 07:36:05;;;;;;;55.80;19.92;;;;;;;6.05;100.00;98349.75;5083534;28;20093;-82
2023/12/05 07:38:49;;;;;;;45.95;19.02;;;;;;;5.81;100.00;98350.84;5083474;28;20031;-81
2023/12/05 07:41:33;;;;;;;56.95;20.15;;;;;;;6.12;100.00;98371.50;5083910;28;20521;-85
2023/12/05 07:44:17;;;;;;;47.17;19.65;;;;;;;5.99;100.00;98377.34;5077437;28;20043;-83
2023/12/05 07:47:02;;;;;;;54.53;21.02;;;;;;;6.13;100.00;98380.13;5086765;28;20066;-86
2023/12/05 07:49:46;;;;;;;47.92;17.75;;;;;;;5.85;100.00;98386.75;5076555;28;20063;-85
2023/12/05 07:52:30;;;;;;;51.65;19.50;;;;;;;5.94;100.00;98391.88;5080130;28;20086;-85
2023/12/05 07:55:15;;;;;;;49.45;18.55;;;;;;;5.99;100.00;98394.75;5079834;28;20039;-88
2023/12/05 07:57:59;;;;;;;52.63;19.83;;;;;;;6.07;100.00;98394.66;5080589;28;20043;-87
2023/12/05 08:00:43;;;;;;;54.95;18.08;;;;;;;6.20;100.00;98401.06;5076641;28;20055;-89
2023/12/05 08:03:28;;;;;;;51.22;18.42;;;;;;;6.31;100.00;98405.81;5087271;28;20089;-89
2023/12/05 08:06:13;;;;;;;41.88;15.95;;;;;;;6.32;100.00;98412.63;5083269;28;20090;-89
2023/12/05 08:08:59;;;;;;;43.42;16.45;;;;;;;6.19;100.00;98418.50;5079239;28;20143;-89
2023/12/05 08:11:43;;;;;;;41.78;16.13;;;;;;;5.93;100.00;98422.31;5080055;28;20092;-89
2023/12/05 08:14:27;;;;;;;36.83;16.17;;;;;;;6.01;100.00;98418.84;5078678;28;20051;-87
2023/12/05 08:17:13;;;;;;;44.25;15.80;;;;;;;5.91;100.00;98418.28;5084158;28;20040;-88
2023/12/05 08:19:57;;;;;;;38.50;16.33;;;;;;;5.83;100.00;98425.19;5082735;28;20112;-88
2023/12/05 08:22:41;;;;;;;28.88;13.48;;;;;;;5.94;100.00;98426.53;5088535;28;20035;-85
2023/12/05 08:25:25;;;;;;;40.65;15.00;;;;;;;5.89;100.00;98415.03;5080795;28;20078;-84
2023/12/05 08:28:09;;;;;;;36.58;14.40;;;;;;;5.90;100.00;98437.53;5079503;28;20497;-83
2023/12/05 08:30:53;;;;;;;37.20;15.02;;;;;;;6.06;100.00;98450.38;5075906;28;20047;-85
2023/12/05 08:33:37;;;;;;;40.50;14.13;;;;;;;6.05;100.00;98453.97;5077752;28;20048;-87
2023/12/05 08:36:22;;;;;;;42.78;15.40;;;;;;;5.99;100.00;98449.47;5084301;28;20055;-92
2023/12/05 08:39:06;;;;;;;42.20;16.15;;;;;;;6.25;100.00;98451.66;5084884;28;20061;-86
2023/12/05 08:41:51;;;;;;;33.40;15.57;;;;;;;6.12;100.00;98454.06;5080346;28;20078;-87
2023/12/05 08:44:36;;;;;;;41.10;16.35;;;;;;;6.07;100.00;98462.41;5090492;28;20039;-86
2023/12/05 08:47:20;;;;;;;42.72;16.00;;;;;;;5.95;100.00;98479.47;5080036;28;20055;-86
2023/12/05 08:50:05;;;;;;;49.85;16.90;;;;;;;6.03;100.00;98466.38;5081660;28;20047;-86
2023/12/05 08:52:49;;;;;;;41.72;17.00;;;;;;;6.00;100.00;98477.13;5078342;28;20138;-82
2023/12/05 08:55:33;;;;;;;46.10;18.73;;;;;;;5.95;100.00;98479.47;5081400;28;20505;-85
2023/12/05 08:58:17;;;;;;;48.45;19.08;;;;;;;6.02;100.00;98495.22;5082525;28;20085;-85
2023/12/05 09:01:00;;;;;;;44.00;19.42;;;;;;;5.78;100.00;98490.03;5081673;28;20066;-85
2023/12/05 09:03:44;;;;;;;39.13;17.90;;;;;;;5.98;100.00;98499.94;5080878;28;20406;-85
2023/12/05 09:06:28;;;;;;;44.03;16.42;;;;;;;6.13;100.00;98503.41;5082743;28;20105;-86
2023/12/05 09:09:12;;;;;;;41.65;17.85;;;;;;;5.98;100.00;98515.56;5081620;28;20094;-86
2023/12/05 09:11:59;;;;;;;38.67;16.05;;;;;;;6.02;100.00;98519.47;5078766;28;20598;-85
2023/12/05 09:14:43;;;;;;;40.00;15.98;;;;;;;6.32;100.00;98524.72;5080695;28;20509;-85
2023/12/05 09:17:28;;;;;;;35.03;15.13;;;;;;;6.03;100.00;98522.91;5085049;28;20040;-87
2023/12/05 09:20:12;;;;;;;30.85;14.80;;;;;;;6.08;100.00;98526.56;5082016;28;20517;-84
2023/12/05 09:22:56;;;;;;;35.40;14.82;;;;;;;6.25;100.00;98532.44;5083492;28;20090;-82
2023/12/05 09:25:41;;;;;;;29.45;14.05;;;;;;;6.20;100.00;98526.97;5083923;28;20047;-83
2023/12/05 09:28:25;;;;;;;33.05;13.38;;;;;;;6.11;100.00;98535.84;5076188;28;20551;-86
2023/12/05 09:31:09;;;;;;;35.42;13.38;;;;;;;6.17;100.00;98536.94;5084736;28;20043;-87
2023/12/05 09:33:53;;;;;;;24.90;13.05;;;;;;;6.29;100.00;98538.13;5088601;28;20074;-86
2023/12/05 09:36:37;;;;;;;38.03;13.38;;;;;;;6.35;100.00;98540.00;5088176;28;20047;-86
2023/12/05 09:39:21;;;;;;;30.17;13.45;;;;;;;6.12;100.00;98543.50;5081719;28;20094;-86
2023/12/05 09:42:07;;;;;;;28.45;12.82;;;;;;;6.05;100.00;98555.59;5085803;28;20043;-86
2023/12/05 09:44:52;;;;;;;28.25;13.13;;;;;;;6.61;100.00;98556.19;5086521;28;20043;-85
2023/12/05 09:47:39;;;;;;;33.03;13.18;;;;;;;6.34;100.00;98541.00;5085597;28;20043;-85
2023/12/05 09:50:23;;;;;;;31.42;14.00;;;;;;;6.37;100.00;98552.84;5083478;28;20492;-86
2023/12/05 09:53:09;;;;;;;25.90;11.60;;;;;;;6.48;100.00;98556.78;5080472;28;20557;-87
2023/12/05 09:55:53;;;;;;;29.23;11.60;;;;;;;6.30;100.00;98560.59;5085168;28;20444;-86
2023/12/05 09:58:43;;;;;;;22.38;11.38;;;;;;;6.16;100.00;98566.59;5082349;28;20089;-86
2023/12/05 10:01:31;;;;;;;28.85;13.52;;;;;;;6.46;100.00;98570.03;5086799;28;20104;-87
2023/12/05 10:04:17;;;;;;;32.88;12.38;;;;;;;6.14;100.00;98570.19;5092021;28;20500;-85
2023/12/05 10:07:03;;;;;;;25.95;11.25;;;;;;;6.20;100.00;98578.25;5088659;28;20496;-86
2023/12/05 10:09:50;;;;;;;71.43;17.70;;;;;;;6.47;100.00;98594.28;5088160;28;20035;-86
2023/12/05 10:12:36;;;;;;;29.40;11.88;;;;;;;6.08;100.00;98580.50;5092018;28;20052;-85
2023/12/05 10:15:20;;;;;;;33.67;12.80;;;;;;;6.39;100.00;98596.00;5085556;28;20093;-86
2023/12/05 10:18:05;;;;;;;28.92;13.48;;;;;;;6.18;100.00;98606.31;5084911;28;20031;-86
2023/12/05 10:20:49;;;;;;;30.17;13.05;;;;;;;6.21;100.00;98601.56;5091219;28;20097;-86
2023/12/05 10:23:34;;;;;;;27.25;12.07;;;;;;;6.40;100.00;98600.22;5087562;28;20056;-88
2023/12/05 10:26:18;;;;;;;31.70;11.88;;;;;;;6.35;100.00;98604.34;5085100;28;20070;-85
2023/12/05 10:29:02;;;;;;;29.13;11.98;;;;;;;6.11;100.00;98608.78;5082690;28;20035;-84
2023/12/05 10:31:46;;;;;;;29.63;12.98;;;;;;;6.41;100.00;98608.88;5082307;28;20039;-87
2023/12/05 10:34:30;;;;;;;32.30;13.95;;;;;;;6.55;100.00;98615.06;5087185;28;20043;-85
2023/12/05 10:37:19;;;;;;;33.35;14.35;;;;;;;6.67;100.00;98618.84;5091776;28;20400;-86
2023/12/05 10:40:04;;;;;;;35.13;14.13;;;;;;;6.40;100.00;98615.88;5082069;28;20508;-85
2023/12/05 10:42:50;;;;;;;25.65;13.25;;;;;;;6.67;100.00;98624.06;5084319;28;20073;-85
2023/12/05 10:45:34;;;;;;;25.95;13.27;;;;;;;6.46;100.00;98621.34;5080030;28;20086;-85
2023/12/05 10:48:19;;;;;;;26.35;11.77;;;;;;;6.25;100.00;98620.22;5088108;28;20532;-86
2023/12/05 10:51:04;;;;;;;21.83;11.40;;;;;;;6.29;100.00;98631.94;5081827;28;20086;-85
2023/12/05 10:53:48;;;;;;;24.23;11.48;;;;;;;6.34;100.00;98627.00;5081439;28;20488;-85
2023/12/05 10:56:32;;;;;;;24.08;11.10;;;;;;;6.08;100.00;98630.78;5085544;28;20047;-85
2023/12/05 10:59:16;;;;;;;23.33;11.65;;;;;;;6.49;100.00;98637.44;5084079;28;20084;-87
2023/12/05 11:02:01;;;;;;;28.40;12.43;;;;;;;6.42;100.00;98641.78;5078887;28;20560;-86
2023/12/05 11:04:44;;;;;;;23.05;10.98;;;;;;;6.17;100.00;98635.97;5076926;28;20055;-87
2023/12/05 11:07:28;;;;;;;26.42;11.98;;;;;;;6.44;100.00;98631.97;5085048;28;20043;-85
2023/12/05 11:10:13;;;;;;;26.25;12.13;;;;;;;6.16;100.00;98636.94;5083126;28;20035;-86
2023/12/05 11:13:00;;;;;;;22.27;12.23;;;;;;;6.03;100.00;98640.94;5088118;28;20039;-87
2023/12/05 11:15:48;;;;;;;27.50;13.88;;;;;;;5.91;100.00;98650.13;5087157;28;20562;-85
2023/12/05 11:18:43;;;;;;;22.98;12.05;;;;;;;6.07;100.00;98644.81;5089945;28;20051;-84
2023/12/05 11:22:02;;;;;;;22.52;11.63;;;;;;;6.16;100.00;98652.56;5089578;28;20078;-86
2023/12/05 11:25:07;;;;;;;22.05;11.05;;;;;;;6.35;100.00;98651.25;5087100;28;20063;-86
2023/12/05 11:28:16;;;;;;;23.40;11.57;;;;;;;6.47;100.00;98656.84;5089953;28;20075;-84
2023/12/05 11:31:25;;;;;;;144.93;23.42;;;;;;;6.37;100.00;98652.72;5084985;28;20034;-86
2023/12/05 11:34:23;;;;;;;21.52;9.52;;;;;;;6.06;100.00;98664.03;5084183;28;20050;-85
2023/12/05 11:37:10;;;;;;;176.27;24.92;;;;;;;6.34;100.00;98660.91;5082534;28;20119;-84
2023/12/05 11:39:54;;;;;;;28.20;11.75;;;;;;;6.27;100.00;98657.34;5085464;28;20051;-84
2023/12/05 11:43:08;;;;;;;22.02;9.75;;;;;;;6.25;100.00;98672.38;5083034;28;20059;-87
2023/12/05 11:45:58;;;;;;;20.13;9.93;;;;;;;6.25;100.00;98664.53;5084556;28;20176;-85
2023/12/05 11:48:41;;;;;;;16.63;9.77;;;;;;;6.25;100.00;98673.19;5089116;28;20051;-86
2023/12/05 11:51:25;;;;;;;22.92;9.10;;;;;;;5.97;100.00;98671.06;5081908;28;20098;-85
2023/12/05 11:54:09;;;;;;;17.83;8.50;;;;;;;5.75;100.00;98671.88;5079607;28;20082;-86
2023/12/05 11:57:10;;;;;;;12.73;7.72;;;;;;;6.30;100.00;98680.50;5083298;28;20096;-86
2023/12/05 11:59:55;;;;;;;17.05;7.30;;;;;;;6.13;100.00;98680.59;5082958;28;20047;-85
2023/12/05 12:02:42;;;;;;;17.35;6.57;;;;;;;6.40;100.00;98691.47;5082398;28;20051;-87
2023/12/05 12:05:27;;;;;;;13.73;7.18;;;;;;;6.14;100.00;98692.66;5084847;28;20109;-87
2023/12/05 12:08:11;;;;;;;14.68;7.40;;;;;;;6.05;100.00;98691.06;5078732;28;20089;-86
2023/12/05 12:10:56;;;;;;;17.50;7.68;;;;;;;6.04;100.00;98697.28;5078070;28;20070;-86
2023/12/05 12:13:41;;;;;;;15.70;7.20;;;;;;;5.95;100.00;98693.09;5083934;28;20032;-85
2023/12/05 12:16:25;;;;;;;18.55;6.78;;;;;;;6.14;100.00;98703.06;5086169;28;20090;-85
2023/12/05 12:19:15;;;;;;;19.70;6.75;;;;;;;6.18;100.00;98700.13;5087690;28;20043;-87
2023/12/05 12:22:05;;;;;;;19.30;7.28;;;;;;;6.14;100.00;98703.06;5085699;28;20037;-88
2023/12/05 12:24:49;;;;;;;13.27;6.65;;;;;;;6.11;100.00;98708.63;5085178;28;20096;-87
2023/12/05 12:27:36;;;;;;;17.15;7.05;;;;;;;6.10;100.00;98714.84;5083786;28;20047;-89
2023/12/05 12:30:20;;;;;;;17.35;6.97;;;;;;;6.04;100.00;98718.13;5081863;28;20047;-86
2023/12/05 12:33:09;;;;;;;14.50;6.90;;;;;;;6.20;100.00;98711.19;5086404;28;20394;-86
2023/12/05 12:35:54;;;;;;;22.50;7.68;;;;;;;6.26;100.00;98720.91;5082477;28;20039;-87
2023/12/05 12:38:38;;;;;;;14.80;8.18;;;;;;;6.30;100.00;98722.19;5086518;28;20081;-86